Time;durP1;ratioP1;P1;durP2;ratioP2;P2;SDS_P1;SDS_P2;PMS_P1;PMS_P2;Temp;Humidity;BMP_temperature;BMP_pressure;BME280_temperature;BME280_humidity;BME280_pressure;Samples;Min_cycle;Max_cycle;Signal;HPM_P1;HPM_P2
2022/03/27 00:02:18;;;;;;;11.63;10.30;;;;;;;;;;4996724;28;93352;-76
2022/03/27 00:04:45;;;;;;;12.63;10.95;;;;;;;;;;4996841;28;92349;-75
2022/03/27 00:07:12;;;;;;;12.85;11.50;;;;;;;;;;4996650;28;94176;-77
2022/03/27 00:09:38;;;;;;;13.02;11.65;;;;;;;;;;4996444;28;92916;-74
2022/03/27 00:12:05;;;;;;;13.32;11.93;;;;;;;;;;4996861;28;92311;-76
2022/03/27 00:14:31;;;;;;;14.27;12.18;;;;;;;;;;4994860;28;94808;-74
2022/03/27 00:16:57;;;;;;;14.48;12.30;;;;;;;;;;4996567;28;93769;-76
2022/03/27 00:19:24;;;;;;;14.68;13.15;;;;;;;;;;4999650;28;92206;-75
2022/03/27 00:21:51;;;;;;;15.88;14.00;;;;;;;;;;4996671;28;92322;-74
2022/03/27 00:24:17;;;;;;;16.60;13.98;;;;;;;;;;4996633;28;92271;-75
2022/03/27 00:26:43;;;;;;;16.42;13.90;;;;;;;;;;5002307;28;94313;-76
2022/03/27 00:29:10;;;;;;;15.95;14.35;;;;;;;;;;5003309;28;92231;-80
2022/03/27 00:31:38;;;;;;;15.95;13.88;;;;;;;;;;4996907;28;91530;-75
2022/03/27 00:34:05;;;;;;;18.02;12.80;;;;;;;;;;4996710;28;92308;-77
2022/03/27 00:36:31;;;;;;;14.10;12.68;;;;;;;;;;4997943;28;93563;-73
2022/03/27 00:38:58;;;;;;;13.60;11.52;;;;;;;;;;5007303;28;94539;-74
2022/03/27 00:41:25;;;;;;;12.10;10.98;;;;;;;;;;4999413;28;94836;-75
2022/03/27 00:43:51;;;;;;;13.70;12.27;;;;;;;;;;4996107;28;92286;-76
2022/03/27 00:46:18;;;;;;;13.02;11.48;;;;;;;;;;4960569;28;92981;-75
2022/03/27 00:48:45;;;;;;;12.65;11.43;;;;;;;;;;4996379;28;93310;-75
2022/03/27 00:51:11;;;;;;;14.40;11.63;;;;;;;;;;4995533;28;92385;-75
2022/03/27 00:53:37;;;;;;;13.07;11.75;;;;;;;;;;4996343;28;93450;-76
2022/03/27 00:56:04;;;;;;;13.63;11.52;;;;;;;;;;4995920;28;92779;-76
2022/03/27 00:58:30;;;;;;;12.88;11.52;;;;;;;;;;4996014;28;92213;-74
2022/03/27 01:01:16;;;;;;;14.27;11.98;;;;;;;;;;4996321;28;93381;-74
2022/03/27 01:03:43;;;;;;;14.40;12.32;;;;;;;;;;4997347;28;95916;-73
2022/03/27 01:06:17;;;;;;;15.00;12.90;;;;;;;;;;4996056;28;96081;-76
2022/03/27 01:11:28;;;;;;;17.17;13.50;;;;;;;;;;4996000;28;92433;-76
2022/03/27 01:13:55;;;;;;;14.77;13.07;;;;;;;;;;4996056;28;93787;-75
2022/03/27 01:16:42;;;;;;;18.27;13.40;;;;;;;;;;4980632;28;95106;-76
2022/03/27 01:19:10;;;;;;;13.85;11.93;;;;;;;;;;4998682;28;92272;-78
2022/03/27 01:21:37;;;;;;;14.48;10.88;;;;;;;;;;4999782;28;93406;-78
2022/03/27 01:24:04;;;;;;;12.48;10.85;;;;;;;;;;4999433;28;93061;-75
2022/03/27 01:26:30;;;;;;;14.25;10.77;;;;;;;;;;5001163;28;92270;-74
2022/03/27 01:28:57;;;;;;;11.93;10.68;;;;;;;;;;4997469;28;95595;-76
2022/03/27 01:31:23;;;;;;;11.65;10.50;;;;;;;;;;4999137;28;92181;-77
2022/03/27 01:33:50;;;;;;;10.90;9.88;;;;;;;;;;4999003;28;93602;-77
2022/03/27 01:36:24;;;;;;;11.65;10.45;;;;;;;;;;5000886;28;93217;-75
2022/03/27 01:38:52;;;;;;;13.65;10.38;;;;;;;;;;5006776;28;92260;-76
2022/03/27 01:41:18;;;;;;;11.40;10.07;;;;;;;;;;5002085;28;93115;-76
2022/03/27 01:43:45;;;;;;;11.45;10.30;;;;;;;;;;4998863;28;93696;-76
2022/03/27 01:46:13;;;;;;;13.00;10.48;;;;;;;;;;4999046;28;91940;-75
2022/03/27 01:48:39;;;;;;;12.80;10.93;;;;;;;;;;5002228;28;92659;-76
2022/03/27 01:51:06;;;;;;;13.13;11.02;;;;;;;;;;4999031;28;92371;-75
2022/03/27 01:53:32;;;;;;;12.65;10.60;;;;;;;;;;4997287;28;94831;-75
2022/03/27 01:55:58;;;;;;;17.27;11.57;;;;;;;;;;4996721;28;95038;-75
2022/03/27 01:58:31;;;;;;;14.30;11.60;;;;;;;;;;4997395;28;92318;-75
2022/03/27 02:00:58;;;;;;;13.32;10.70;;;;;;;;;;4998444;28;93370;-75
2022/03/27 02:03:27;;;;;;;15.15;11.25;;;;;;;;;;4997384;28;96602;-76
2022/03/27 02:05:54;;;;;;;15.90;11.45;;;;;;;;;;4998789;28;92394;-74
2022/03/27 02:08:21;;;;;;;15.50;12.00;;;;;;;;;;4998771;28;93190;-75
2022/03/27 02:10:55;;;;;;;15.85;11.48;;;;;;;;;;5000921;28;93959;-76
2022/03/27 02:13:22;;;;;;;14.70;10.30;;;;;;;;;;4998433;28;92446;-76
2022/03/27 02:15:49;;;;;;;15.23;10.98;;;;;;;;;;4998623;28;93519;-76
2022/03/27 02:18:16;;;;;;;13.77;11.00;;;;;;;;;;4996958;28;94674;-75
2022/03/27 02:20:44;;;;;;;15.70;11.70;;;;;;;;;;4998224;28;95922;-76
2022/03/27 02:23:11;;;;;;;19.02;11.60;;;;;;;;;;4997893;28;93650;-75
2022/03/27 02:25:37;;;;;;;16.17;11.32;;;;;;;;;;4998110;28;92337;-76
2022/03/27 02:28:04;;;;;;;16.60;12.07;;;;;;;;;;4997860;28;93555;-75
2022/03/27 02:30:30;;;;;;;19.50;12.23;;;;;;;;;;5001301;28;94218;-75
2022/03/27 02:32:57;;;;;;;21.00;12.23;;;;;;;;;;4998277;28;92980;-74
2022/03/27 02:35:23;;;;;;;16.85;12.48;;;;;;;;;;4998514;28;93182;-76
2022/03/27 02:37:50;;;;;;;17.15;12.10;;;;;;;;;;4998212;28;92206;-76
2022/03/27 02:40:16;;;;;;;17.20;11.95;;;;;;;;;;4997660;28;93363;-75
2022/03/27 02:42:42;;;;;;;17.38;12.65;;;;;;;;;;4995924;28;96200;-76
2022/03/27 02:45:09;;;;;;;19.70;13.27;;;;;;;;;;4997548;28;92163;-76
2022/03/27 02:47:35;;;;;;;19.63;12.75;;;;;;;;;;4997706;28;93058;-75
2022/03/27 02:50:04;;;;;;;18.50;12.45;;;;;;;;;;5007354;28;93529;-74
2022/03/27 02:52:30;;;;;;;20.45;12.38;;;;;;;;;;5003505;28;92432;-76
2022/03/27 02:54:58;;;;;;;19.02;12.73;;;;;;;;;;4994998;28;94487;-78
2022/03/27 02:57:24;;;;;;;19.60;12.65;;;;;;;;;;4996577;28;92379;-76
2022/03/27 02:59:52;;;;;;;19.98;12.90;;;;;;;;;;4996984;28;93970;-74
2022/03/27 03:02:19;;;;;;;20.42;13.23;;;;;;;;;;4996372;28;93591;-75
2022/03/27 03:04:47;;;;;;;20.23;12.73;;;;;;;;;;4996475;28;92291;-76
2022/03/27 03:07:16;;;;;;;19.33;12.30;;;;;;;;;;4994899;28;95474;-77
2022/03/27 03:09:43;;;;;;;21.00;13.45;;;;;;;;;;4995209;28;92660;-76
2022/03/27 03:12:10;;;;;;;20.58;12.68;;;;;;;;;;4996781;28;92212;-76
2022/03/27 03:14:36;;;;;;;20.00;12.93;;;;;;;;;;4999122;28;92437;-75
2022/03/27 03:17:04;;;;;;;18.65;13.02;;;;;;;;;;4996213;28;92370;-77
2022/03/27 03:19:31;;;;;;;20.02;13.50;;;;;;;;;;4995731;28;95518;-77
2022/03/27 03:21:57;;;;;;;20.58;12.75;;;;;;;;;;4996155;28;93161;-75
2022/03/27 03:24:25;;;;;;;19.40;13.45;;;;;;;;;;4962476;28;91684;-75
2022/03/27 03:26:53;;;;;;;22.08;13.55;;;;;;;;;;4995101;28;92779;-75
2022/03/27 03:29:20;;;;;;;19.88;12.98;;;;;;;;;;4995601;28;94582;-76
2022/03/27 03:31:46;;;;;;;21.83;12.77;;;;;;;;;;4994258;28;94746;-75
2022/03/27 03:34:13;;;;;;;21.20;13.02;;;;;;;;;;4995854;28;95907;-76
2022/03/27 03:36:40;;;;;;;20.52;12.80;;;;;;;;;;4998707;28;93847;-77
2022/03/27 03:39:07;;;;;;;24.70;14.25;;;;;;;;;;4995351;28;92907;-75
2022/03/27 03:41:34;;;;;;;21.10;13.18;;;;;;;;;;4995762;28;93385;-77
2022/03/27 03:44:21;;;;;;;18.92;12.23;;;;;;;;;;4995557;28;92274;-76
2022/03/27 03:46:48;;;;;;;18.63;12.77;;;;;;;;;;4957206;28;1118103;-76
2022/03/27 03:49:15;;;;;;;19.10;12.43;;;;;;;;;;4997086;28;93324;-75
2022/03/27 03:51:41;;;;;;;19.50;12.10;;;;;;;;;;4995840;28;94041;-76
2022/03/27 03:54:07;;;;;;;20.58;12.48;;;;;;;;;;4997376;28;92844;-76
2022/03/27 03:56:35;;;;;;;17.65;12.55;;;;;;;;;;4995341;28;96081;-75
2022/03/27 03:59:01;;;;;;;20.58;12.32;;;;;;;;;;5001427;28;92282;-77
2022/03/27 04:01:47;;;;;;;17.58;11.43;;;;;;;;;;5007272;28;92377;-76
2022/03/27 04:04:14;;;;;;;17.23;11.75;;;;;;;;;;4997380;28;92347;-77
2022/03/27 04:06:40;;;;;;;18.63;11.02;;;;;;;;;;4996505;28;93712;-78
2022/03/27 04:09:06;;;;;;;15.18;10.63;;;;;;;;;;5004668;28;93493;-77
2022/03/27 04:11:33;;;;;;;16.92;11.73;;;;;;;;;;5007467;28;92110;-75
2022/03/27 04:13:59;;;;;;;16.77;11.13;;;;;;;;;;5008190;28;93388;-76
2022/03/27 04:16:26;;;;;;;15.82;10.35;;;;;;;;;;5003299;28;93790;-75
2022/03/27 04:18:52;;;;;;;16.90;10.27;;;;;;;;;;5004799;28;92269;-76
2022/03/27 04:21:19;;;;;;;16.75;11.30;;;;;;;;;;5007433;28;94978;-76
2022/03/27 04:23:45;;;;;;;16.33;11.75;;;;;;;;;;5005249;28;92493;-76
2022/03/27 04:26:12;;;;;;;16.52;10.98;;;;;;;;;;4997949;28;92443;-76
2022/03/27 04:28:39;;;;;;;19.13;11.02;;;;;;;;;;4996886;28;93515;-75
2022/03/27 04:31:06;;;;;;;17.15;11.63;;;;;;;;;;4995064;28;92691;-76
2022/03/27 04:33:33;;;;;;;16.05;10.93;;;;;;;;;;4996637;28;92854;-77
2022/03/27 04:36:02;;;;;;;16.30;10.70;;;;;;;;;;4996454;28;93069;-75
2022/03/27 04:38:28;;;;;;;15.45;10.68;;;;;;;;;;4997050;28;91627;-75
2022/03/27 04:40:55;;;;;;;16.58;10.80;;;;;;;;;;4999397;28;93178;-75
2022/03/27 04:43:22;;;;;;;16.20;11.63;;;;;;;;;;4994820;28;92885;-76
2022/03/27 04:45:49;;;;;;;14.38;10.90;;;;;;;;;;4994512;28;94618;-76
2022/03/27 04:48:16;;;;;;;15.75;10.95;;;;;;;;;;4996403;28;93430;-77
2022/03/27 04:50:42;;;;;;;14.35;10.52;;;;;;;;;;4998154;28;92306;-77
2022/03/27 04:53:10;;;;;;;15.05;10.60;;;;;;;;;;5000277;28;93800;-75
2022/03/27 04:55:36;;;;;;;15.50;11.02;;;;;;;;;;4998438;28;94665;-74
2022/03/27 04:58:06;;;;;;;15.57;10.50;;;;;;;;;;4999531;28;92330;-75
2022/03/27 05:00:33;;;;;;;14.70;10.98;;;;;;;;;;5008883;28;93302;-76
2022/03/27 05:02:59;;;;;;;14.65;10.38;;;;;;;;;;5009430;28;92838;-75
2022/03/27 05:05:26;;;;;;;12.98;10.55;;;;;;;;;;4999995;28;92494;-78
2022/03/27 05:07:53;;;;;;;15.02;11.05;;;;;;;;;;4999627;28;92322;-79
2022/03/27 05:10:20;;;;;;;13.60;10.55;;;;;;;;;;5002862;28;94708;-76
2022/03/27 05:12:46;;;;;;;15.00;10.45;;;;;;;;;;5007547;28;94994;-76
2022/03/27 05:15:12;;;;;;;12.18;10.02;;;;;;;;;;4999588;28;93603;-77
2022/03/27 05:17:54;;;;;;;11.73;10.00;;;;;;;;;;4999707;28;92163;-77
2022/03/27 05:20:21;;;;;;;12.25;9.55;;;;;;;;;;4998604;28;92661;-77
2022/03/27 05:22:47;;;;;;;12.20;9.50;;;;;;;;;;5000109;28;93193;-76
2022/03/27 05:25:15;;;;;;;10.55;9.43;;;;;;;;;;4999739;28;92230;-76
2022/03/27 05:27:46;;;;;;;13.65;10.30;;;;;;;;;;5000703;28;92369;-77
2022/03/27 05:30:12;;;;;;;12.18;10.18;;;;;;;;;;4998327;28;92225;-77
2022/03/27 05:32:39;;;;;;;12.02;9.75;;;;;;;;;;4999029;28;93057;-77
2022/03/27 05:35:05;;;;;;;11.32;9.60;;;;;;;;;;4996085;28;96033;-79
2022/03/27 05:37:34;;;;;;;11.35;9.50;;;;;;;;;;4995840;28;92898;-77
2022/03/27 05:40:02;;;;;;;11.00;9.43;;;;;;;;;;5000099;28;92180;-78
2022/03/27 05:42:28;;;;;;;11.80;9.60;;;;;;;;;;4999532;28;92946;-78
2022/03/27 05:44:55;;;;;;;11.63;9.80;;;;;;;;;;5000844;28;92345;-77
2022/03/27 05:47:21;;;;;;;10.65;9.05;;;;;;;;;;5005556;28;93634;-75
2022/03/27 05:49:47;;;;;;;9.82;8.77;;;;;;;;;;5002030;28;92313;-77
2022/03/27 05:52:16;;;;;;;11.55;9.45;;;;;;;;;;5001329;28;93527;-76
2022/03/27 05:54:43;;;;;;;11.10;9.00;;;;;;;;;;4998573;28;96115;-76
2022/03/27 05:57:09;;;;;;;10.43;8.90;;;;;;;;;;4998491;28;92337;-76
2022/03/27 05:59:35;;;;;;;11.60;9.00;;;;;;;;;;4998143;28;94637;-77
2022/03/27 06:02:02;;;;;;;10.38;9.07;;;;;;;;;;4998873;28;92754;-75
2022/03/27 06:04:29;;;;;;;11.82;9.65;;;;;;;;;;4999127;28;92381;-76
2022/03/27 06:06:55;;;;;;;10.05;8.82;;;;;;;;;;4999234;28;93464;-75
2022/03/27 06:09:22;;;;;;;10.95;9.23;;;;;;;;;;5002328;28;93680;-75
2022/03/27 06:11:49;;;;;;;11.13;9.55;;;;;;;;;;4999600;28;93209;-77
2022/03/27 06:14:15;;;;;;;10.02;9.00;;;;;;;;;;4999272;28;92699;-77
2022/03/27 06:16:41;;;;;;;11.20;9.00;;;;;;;;;;4999901;28;91586;-75
2022/03/27 06:19:08;;;;;;;10.75;9.05;;;;;;;;;;4998736;28;92743;-73
2022/03/27 06:21:34;;;;;;;10.20;9.02;;;;;;;;;;5004675;28;92971;-76
2022/03/27 06:24:00;;;;;;;9.90;8.90;;;;;;;;;;4998390;28;94655;-75
2022/03/27 06:26:27;;;;;;;11.85;8.95;;;;;;;;;;4998939;28;95862;-77
2022/03/27 06:28:55;;;;;;;9.98;9.00;;;;;;;;;;4999180;28;93035;-78
2022/03/27 06:31:22;;;;;;;10.55;9.00;;;;;;;;;;5001895;28;92188;-77
2022/03/27 06:33:48;;;;;;;9.25;8.35;;;;;;;;;;4998583;28;93294;-76
2022/03/27 06:36:15;;;;;;;9.52;8.55;;;;;;;;;;4999169;28;92326;-77
2022/03/27 06:38:41;;;;;;;8.90;7.93;;;;;;;;;;4999004;28;93376;-79
2022/03/27 06:41:07;;;;;;;9.45;8.45;;;;;;;;;;4999436;28;92441;-77
2022/03/27 06:43:36;;;;;;;10.52;8.75;;;;;;;;;;4998679;28;92321;-76
2022/03/27 06:46:02;;;;;;;10.10;8.68;;;;;;;;;;4997108;28;94849;-74
2022/03/27 06:48:30;;;;;;;9.27;8.48;;;;;;;;;;4996572;28;95500;-75
2022/03/27 06:50:56;;;;;;;9.10;8.30;;;;;;;;;;5001636;28;92366;-75
2022/03/27 06:53:24;;;;;;;8.88;7.97;;;;;;;;;;4998464;28;93867;-75
2022/03/27 06:55:51;;;;;;;9.43;8.60;;;;;;;;;;4998147;28;92339;-76
2022/03/27 06:58:18;;;;;;;8.70;7.88;;;;;;;;;;4998593;28;93727;-74
2022/03/27 07:03:29;;;;;;;9.10;8.07;;;;;;;;;;4998465;28;92362;-75
2022/03/27 07:05:57;;;;;;;8.55;7.82;;;;;;;;;;4998923;28;93582;-76
2022/03/27 07:08:23;;;;;;;8.90;8.10;;;;;;;;;;4999665;28;93876;-74
2022/03/27 07:10:50;;;;;;;8.52;7.72;;;;;;;;;;5007993;28;92123;-75
2022/03/27 07:13:18;;;;;;;8.73;8.02;;;;;;;;;;4999021;28;94541;-76
2022/03/27 07:15:45;;;;;;;8.98;8.25;;;;;;;;;;4997192;28;92548;-73
2022/03/27 07:18:11;;;;;;;9.10;8.20;;;;;;;;;;4998272;28;93286;-74
2022/03/27 07:20:41;;;;;;;9.50;8.48;;;;;;;;;;4997439;28;93728;-75
2022/03/27 07:23:09;;;;;;;9.85;8.85;;;;;;;;;;4998188;28;92767;-74
2022/03/27 07:25:36;;;;;;;9.98;9.00;;;;;;;;;;4998185;28;92845;-75
2022/03/27 07:28:03;;;;;;;9.25;8.25;;;;;;;;;;4997961;28;93240;-75
2022/03/27 07:30:30;;;;;;;9.13;8.35;;;;;;;;;;4998692;28;91507;-72
2022/03/27 07:32:57;;;;;;;8.98;8.15;;;;;;;;;;5001553;28;92583;-75
2022/03/27 07:35:25;;;;;;;9.30;8.38;;;;;;;;;;5011228;28;94190;-74
2022/03/27 07:37:53;;;;;;;9.15;8.23;;;;;;;;;;4997362;28;94705;-74
2022/03/27 07:40:20;;;;;;;9.45;8.35;;;;;;;;;;4998165;28;92215;-75
2022/03/27 07:42:49;;;;;;;9.48;8.57;;;;;;;;;;4998259;28;92461;-73
2022/03/27 07:45:20;;;;;;;9.98;8.95;;;;;;;;;;4997484;28;93424;-73
2022/03/27 07:47:47;;;;;;;9.38;8.57;;;;;;;;;;4997646;28;93641;-74
2022/03/27 07:50:14;;;;;;;9.10;8.20;;;;;;;;;;4997212;28;92403;-73
2022/03/27 07:52:41;;;;;;;11.77;8.57;;;;;;;;;;4997801;28;93356;-76
2022/03/27 07:55:10;;;;;;;10.00;8.75;;;;;;;;;;4998084;28;92363;-74
2022/03/27 07:57:36;;;;;;;8.98;8.07;;;;;;;;;;5000776;28;92386;-74
2022/03/27 08:00:03;;;;;;;8.65;7.75;;;;;;;;;;4997301;28;93690;-74
2022/03/27 08:02:38;;;;;;;8.93;8.02;;;;;;;;;;4993811;28;95014;-75
2022/03/27 08:05:05;;;;;;;10.15;8.20;;;;;;;;;;4997251;28;94982;-74
2022/03/27 08:07:32;;;;;;;8.98;8.18;;;;;;;;;;4997527;28;93234;-75
2022/03/27 08:09:59;;;;;;;8.85;7.95;;;;;;;;;;4997880;28;92224;-75
2022/03/27 08:12:26;;;;;;;9.48;8.40;;;;;;;;;;4997346;28;93258;-75
2022/03/27 08:14:53;;;;;;;10.25;8.82;;;;;;;;;;4996525;28;93623;-76
2022/03/27 08:17:20;;;;;;;9.13;8.20;;;;;;;;;;4997270;28;92433;-79
2022/03/27 08:19:48;;;;;;;7.78;7.00;;;;;;;;;;5000607;28;93515;-72
2022/03/27 08:22:14;;;;;;;8.25;7.43;;;;;;;;;;4997343;28;92248;-74
2022/03/27 08:24:41;;;;;;;10.02;7.97;;;;;;;;;;4997252;28;93510;-75
2022/03/27 08:27:08;;;;;;;10.82;8.38;;;;;;;;;;4995374;28;97615;-75
2022/03/27 08:29:36;;;;;;;9.38;7.95;;;;;;;;;;4997486;28;92174;-74
2022/03/27 08:32:04;;;;;;;8.85;7.95;;;;;;;;;;4996981;28;93391;-73
2022/03/27 08:34:31;;;;;;;8.40;7.40;;;;;;;;;;4997101;28;93629;-75
2022/03/27 08:36:58;;;;;;;8.02;7.22;;;;;;;;;;4997283;28;92292;-76
2022/03/27 08:39:25;;;;;;;8.45;7.40;;;;;;;;;;4999861;28;93764;-74
2022/03/27 08:41:54;;;;;;;8.60;7.88;;;;;;;;;;4996673;28;92221;-75
2022/03/27 08:44:21;;;;;;;12.00;8.38;;;;;;;;;;4998973;28;92898;-76
2022/03/27 08:46:48;;;;;;;10.60;8.27;;;;;;;;;;5007803;28;92909;-76
2022/03/27 08:49:34;;;;;;;9.23;8.32;;;;;;;;;;4996945;28;92332;-76
2022/03/27 08:52:00;;;;;;;8.70;7.90;;;;;;;;;;4995518;28;94650;-74
2022/03/27 08:54:31;;;;;;;10.50;7.82;;;;;;;;;;4996705;28;93713;-75
2022/03/27 08:57:08;;;;;;;9.10;8.20;;;;;;;;;;4996350;28;92202;-76
2022/03/27 08:59:36;;;;;;;9.48;8.05;;;;;;;;;;4996068;28;95612;-75
2022/03/27 09:02:03;;;;;;;9.00;7.85;;;;;;;;;;4999904;28;93048;-74
2022/03/27 09:04:31;;;;;;;8.57;7.85;;;;;;;;;;4996650;28;93575;-76
2022/03/27 09:07:00;;;;;;;11.02;8.15;;;;;;;;;;4995938;28;92902;-76
2022/03/27 09:09:31;;;;;;;8.50;7.70;;;;;;;;;;4978002;28;91702;-74
2022/03/27 09:11:58;;;;;;;9.13;7.75;;;;;;;;;;4996771;28;92176;-75
2022/03/27 09:14:24;;;;;;;8.45;7.65;;;;;;;;;;4996613;28;93198;-74
2022/03/27 09:17:01;;;;;;;10.23;8.25;;;;;;;;;;4995066;28;94678;-75
2022/03/27 09:19:32;;;;;;;8.88;7.75;;;;;;;;;;5000614;28;96388;-75
2022/03/27 09:21:59;;;;;;;8.73;7.67;;;;;;;;;;5002223;28;94091;-75
2022/03/27 09:24:32;;;;;;;8.45;7.57;;;;;;;;;;4999397;28;92405;-76
2022/03/27 09:27:00;;;;;;;10.13;8.48;;;;;;;;;;4996449;28;94099;-76
2022/03/27 09:29:26;;;;;;;8.63;7.68;;;;;;;;;;4996242;28;92200;-74
2022/03/27 09:31:57;;;;;;;8.48;7.65;;;;;;;;;;4996034;28;94741;-74
2022/03/27 09:34:23;;;;;;;9.98;8.13;;;;;;;;;;4995657;28;93247;-75
2022/03/27 09:36:50;;;;;;;8.65;7.75;;;;;;;;;;4998105;28;92230;-74
2022/03/27 09:39:18;;;;;;;9.70;8.35;;;;;;;;;;4999615;28;92703;-73
2022/03/27 09:41:48;;;;;;;10.75;6.97;;;;;;;;;;4998016;28;97050;-75
2022/03/27 09:44:32;;;;;;;32.92;8.35;;;;;;;;;;4999767;28;92263;-72
2022/03/27 09:47:00;;;;;;;9.00;7.88;;;;;;;;;;5002182;28;93412;-75
2022/03/27 09:49:30;;;;;;;8.70;7.88;;;;;;;;;;4999871;28;92618;-75
2022/03/27 09:52:10;;;;;;;8.48;7.57;;;;;;;;;;4999714;28;93075;-75
2022/03/27 09:54:54;;;;;;;7.85;7.10;;;;;;;;;;4999490;28;93805;-74
2022/03/27 09:57:36;;;;;;;10.32;7.82;;;;;;;;;;5008113;28;92071;-77
2022/03/27 10:00:13;;;;;;;11.05;7.07;;;;;;;;;;5001071;28;92405;-74
2022/03/27 10:02:40;;;;;;;8.75;7.40;;;;;;;;;;4997949;28;93447;-76
2022/03/27 10:05:08;;;;;;;7.28;6.57;;;;;;;;;;4998471;28;92384;-73
2022/03/27 10:07:45;;;;;;;9.55;6.55;;;;;;;;;;4980135;28;94971;-74
2022/03/27 10:10:17;;;;;;;9.95;5.68;;;;;;;;;;5002192;28;93227;-75
2022/03/27 10:12:44;;;;;;;8.55;5.45;;;;;;;;;;4999421;28;93196;-77
2022/03/27 10:15:15;;;;;;;6.28;5.07;;;;;;;;;;4999167;28;93588;-74
2022/03/27 10:18:06;;;;;;;5.30;4.50;;;;;;;;;;4999226;28;92330;-75
2022/03/27 10:20:36;;;;;;;7.38;4.75;;;;;;;;;;4999001;28;93551;-74
2022/03/27 10:23:03;;;;;;;6.07;4.90;;;;;;;;;;4998993;28;94002;-75
2022/03/27 10:25:36;;;;;;;8.13;5.53;;;;;;;;;;4998893;28;91535;-76
2022/03/27 10:28:04;;;;;;;8.30;4.97;;;;;;;;;;5000595;28;92281;-76
2022/03/27 10:30:30;;;;;;;6.30;5.15;;;;;;;;;;5005009;28;93920;-76
2022/03/27 10:32:57;;;;;;;8.10;4.15;;;;;;;;;;5006165;28;94797;-76
2022/03/27 10:35:27;;;;;;;5.45;4.18;;;;;;;;;;5002312;28;93777;-75
2022/03/27 10:38:12;;;;;;;8.75;4.70;;;;;;;;;;5005270;28;92442;-76
2022/03/27 10:41:09;;;;;;;6.75;4.60;;;;;;;;;;5006405;28;93527;-76
2022/03/27 10:43:48;;;;;;;6.35;4.70;;;;;;;;;;4983019;28;93887;-76
2022/03/27 10:46:22;;;;;;;6.25;4.18;;;;;;;;;;5001440;28;92895;-76
2022/03/27 10:48:49;;;;;;;7.00;4.60;;;;;;;;;;4998746;28;92449;-75
2022/03/27 10:51:25;;;;;;;6.15;4.32;;;;;;;;;;4999163;28;94115;-76
2022/03/27 10:54:03;;;;;;;5.93;3.90;;;;;;;;;;5001974;28;94501;-75
2022/03/27 10:56:38;;;;;;;7.30;4.35;;;;;;;;;;4997241;28;94177;-74
2022/03/27 10:59:12;;;;;;;12.02;5.18;;;;;;;;;;4995912;28;94818;-76
2022/03/27 11:01:40;;;;;;;7.82;5.15;;;;;;;;;;4998632;28;95498;-75
2022/03/27 11:04:11;;;;;;;11.43;5.07;;;;;;;;;;4998293;28;93488;-75
2022/03/27 11:06:43;;;;;;;11.10;4.38;;;;;;;;;;4998261;28;92327;-75
2022/03/27 11:09:13;;;;;;;8.23;5.25;;;;;;;;;;5001510;28;93537;-77
2022/03/27 11:11:40;;;;;;;8.45;5.30;;;;;;;;;;4998468;28;93012;-74
2022/03/27 11:14:07;;;;;;;6.95;4.60;;;;;;;;;;4998372;28;92389;-75
2022/03/27 11:16:36;;;;;;;5.57;4.20;;;;;;;;;;5001548;28;93162;-73
2022/03/27 11:19:03;;;;;;;10.52;4.38;;;;;;;;;;4998616;28;92281;-75
2022/03/27 11:21:29;;;;;;;8.13;4.82;;;;;;;;;;4997856;28;94288;-75
2022/03/27 11:24:02;;;;;;;7.57;4.57;;;;;;;;;;4995231;28;98563;-73
2022/03/27 11:26:31;;;;;;;9.90;4.80;;;;;;;;;;4997965;28;92361;-74
2022/03/27 11:29:10;;;;;;;11.32;4.60;;;;;;;;;;4999011;28;93760;-74
2022/03/27 11:31:38;;;;;;;14.43;4.55;;;;;;;;;;5000647;28;92954;-73
2022/03/27 11:34:14;;;;;;;7.30;4.03;;;;;;;;;;4997564;28;92864;-73
2022/03/27 11:36:45;;;;;;;9.25;4.28;;;;;;;;;;4997282;28;93465;-71
2022/03/27 11:39:33;;;;;;;7.13;4.38;;;;;;;;;;5000663;28;93641;-73
2022/03/27 11:42:18;;;;;;;6.88;4.30;;;;;;;;;;4998322;28;93242;-73
2022/03/27 11:47:37;;;;;;;8.00;4.60;;;;;;;;;;4997815;28;92375;-73
2022/03/27 11:50:04;;;;;;;9.75;4.47;;;;;;;;;;4996678;28;95106;-73
2022/03/27 11:52:30;;;;;;;6.95;3.70;;;;;;;;;;4997369;28;93813;-74
2022/03/27 11:55:09;;;;;;;10.20;4.45;;;;;;;;;;4997589;28;92300;-74
2022/03/27 11:57:43;;;;;;;6.78;4.03;;;;;;;;;;4997175;28;93554;-73
2022/03/27 12:00:11;;;;;;;7.50;4.57;;;;;;;;;;4996337;28;93610;-73
2022/03/27 12:02:44;;;;;;;5.22;3.70;;;;;;;;;;4999347;28;92384;-73
2022/03/27 12:05:12;;;;;;;4.95;3.80;;;;;;;;;;4997174;28;93459;-73
2022/03/27 12:07:49;;;;;;;7.70;3.70;;;;;;;;;;4997075;28;91666;-72
2022/03/27 12:10:16;;;;;;;5.10;3.50;;;;;;;;;;4997189;28;92555;-73
2022/03/27 12:12:59;;;;;;;6.10;3.83;;;;;;;;;;4996708;28;93233;-73
2022/03/27 12:15:35;;;;;;;8.10;3.97;;;;;;;;;;4995719;28;94871;-75
2022/03/27 12:18:03;;;;;;;7.70;3.88;;;;;;;;;;4996077;28;97492;-71
2022/03/27 12:20:39;;;;;;;7.55;3.50;;;;;;;;;;5003535;28;92973;-73
2022/03/27 12:23:15;;;;;;;5.20;4.03;;;;;;;;;;5000587;28;92476;-72
2022/03/27 12:25:42;;;;;;;6.97;4.03;;;;;;;;;;4999929;28;93222;-74
2022/03/27 12:30:53;;;;;;;8.80;3.92;;;;;;;;;;4997286;28;93206;-73
2022/03/27 12:33:20;;;;;;;5.70;4.22;;;;;;;;;;4997399;28;93613;-74
2022/03/27 12:36:01;;;;;;;8.02;4.30;;;;;;;;;;4996812;28;92358;-71
2022/03/27 12:38:31;;;;;;;6.50;3.60;;;;;;;;;;4997075;28;93470;-72
2022/03/27 12:40:57;;;;;;;7.20;4.03;;;;;;;;;;4995145;28;96019;-73
2022/03/27 12:43:24;;;;;;;6.65;4.13;;;;;;;;;;4996951;28;92243;-73
2022/03/27 12:45:51;;;;;;;10.50;4.57;;;;;;;;;;4996394;28;94394;-74
2022/03/27 12:48:18;;;;;;;8.23;3.80;;;;;;;;;;4999127;28;94171;-73
2022/03/27 12:50:46;;;;;;;8.43;4.20;;;;;;;;;;4995598;28;95393;-72
2022/03/27 12:53:19;;;;;;;7.40;4.07;;;;;;;;;;4996692;28;93777;-72
2022/03/27 12:55:48;;;;;;;9.05;3.72;;;;;;;;;;4996628;28;92205;-74
2022/03/27 12:58:18;;;;;;;5.78;3.80;;;;;;;;;;4997491;28;92618;-74
2022/03/27 13:00:45;;;;;;;8.23;4.10;;;;;;;;;;4996885;28;94021;-75
2022/03/27 13:03:24;;;;;;;7.75;4.10;;;;;;;;;;4997777;28;92338;-73
2022/03/27 13:05:53;;;;;;;11.85;3.90;;;;;;;;;;4996432;28;94861;-73
2022/03/27 13:08:32;;;;;;;8.30;3.80;;;;;;;;;;5001475;28;93214;-72
2022/03/27 13:11:03;;;;;;;10.43;3.92;;;;;;;;;;4998657;28;92279;-73
2022/03/27 13:13:33;;;;;;;7.72;3.97;;;;;;;;;;5000673;28;93174;-72
2022/03/27 13:16:00;;;;;;;9.20;4.30;;;;;;;;;;5000512;28;92299;-74
2022/03/27 13:18:27;;;;;;;12.35;4.30;;;;;;;;;;5000396;28;93220;-74
2022/03/27 13:20:54;;;;;;;8.80;4.50;;;;;;;;;;4999883;28;94541;-73
2022/03/27 13:23:20;;;;;;;11.32;4.18;;;;;;;;;;4999838;28;92320;-73
2022/03/27 13:25:47;;;;;;;7.53;4.00;;;;;;;;;;4999744;28;92689;-75
2022/03/27 13:28:13;;;;;;;11.70;5.18;;;;;;;;;;5000117;28;93298;-74
2022/03/27 13:30:40;;;;;;;8.60;4.50;;;;;;;;;;5001463;28;94749;-72
2022/03/27 13:33:06;;;;;;;8.80;3.97;;;;;;;;;;5001347;28;94063;-72
2022/03/27 13:35:33;;;;;;;9.90;3.95;;;;;;;;;;5005584;28;92309;-73
2022/03/27 13:38:00;;;;;;;11.98;4.45;;;;;;;;;;5006614;28;92763;-75
2022/03/27 13:42:57;;;;;;;8.88;4.05;;;;;;;;;;5000471;28;93761;-73
2022/03/27 13:43:13;;;;;;;11.32;4.10;;;;;;;;;;4999784;28;92169;-74
2022/03/27 13:45:39;;;;;;;10.88;4.43;;;;;;;;;;4999197;28;92782;-74
2022/03/27 13:48:07;;;;;;;9.90;3.88;;;;;;;;;;5000237;28;92205;-72
2022/03/27 13:50:33;;;;;;;7.85;4.18;;;;;;;;;;4998803;28;92452;-75
2022/03/27 13:53:00;;;;;;;11.55;3.90;;;;;;;;;;5001549;28;93302;-73
2022/03/27 13:55:26;;;;;;;8.25;3.80;;;;;;;;;;4997975;28;94525;-74
2022/03/27 13:57:53;;;;;;;9.68;3.83;;;;;;;;;;4999272;28;95776;-73
2022/03/27 14:00:19;;;;;;;12.85;4.45;;;;;;;;;;4999090;28;95107;-74
2022/03/27 14:02:46;;;;;;;13.48;4.40;;;;;;;;;;4999302;28;92283;-74
2022/03/27 14:05:12;;;;;;;12.00;4.30;;;;;;;;;;4999347;28;94348;-73
2022/03/27 14:07:39;;;;;;;7.55;3.65;;;;;;;;;;4998885;28;93493;-74
2022/03/27 14:10:05;;;;;;;11.80;4.53;;;;;;;;;;4997934;28;92345;-74
2022/03/27 14:12:33;;;;;;;10.45;4.07;;;;;;;;;;4999722;28;93485;-75
2022/03/27 14:15:02;;;;;;;12.65;4.10;;;;;;;;;;5002029;28;93792;-74
2022/03/27 14:17:28;;;;;;;9.98;4.03;;;;;;;;;;4998990;28;94280;-74
2022/03/27 14:19:54;;;;;;;16.05;4.35;;;;;;;;;;4995897;28;96407;-74
2022/03/27 14:22:21;;;;;;;11.20;4.03;;;;;;;;;;4998569;28;92328;-72
2022/03/27 14:24:49;;;;;;;10.57;4.13;;;;;;;;;;4998991;28;93058;-74
2022/03/27 14:27:16;;;;;;;12.30;4.32;;;;;;;;;;4998987;28;92922;-75
2022/03/27 14:29:43;;;;;;;11.20;4.53;;;;;;;;;;4998193;28;92345;-73
2022/03/27 14:32:10;;;;;;;15.10;4.32;;;;;;;;;;4998910;28;93321;-73
2022/03/27 14:34:41;;;;;;;14.65;4.65;;;;;;;;;;4998094;28;93765;-73
2022/03/27 14:37:07;;;;;;;11.40;4.68;;;;;;;;;;5002399;28;91591;-72
2022/03/27 14:39:34;;;;;;;13.18;4.70;;;;;;;;;;4998856;28;93517;-74
2022/03/27 14:42:03;;;;;;;12.20;4.93;;;;;;;;;;4998624;28;92379;-74
2022/03/27 14:44:29;;;;;;;11.88;4.07;;;;;;;;;;4997377;28;94618;-74
2022/03/27 14:46:56;;;;;;;15.30;4.40;;;;;;;;;;5000464;28;92903;-75
2022/03/27 14:49:22;;;;;;;11.30;4.57;;;;;;;;;;5006001;28;92337;-76
2022/03/27 14:51:48;;;;;;;16.55;4.97;;;;;;;;;;4998678;28;93519;-74